sensor_id;sensor_type;location;lat;lon;timestamp;temperature;humidity
40323;DHT22;26030;51.164;17.100;2023-09-18T00:02:16;25.20;62.40
40323;DHT22;26030;51.164;17.100;2023-09-18T00:07:18;25.30;62.40
40323;DHT22;26030;51.164;17.100;2023-09-18T00:12:21;25.30;62.40
40323;DHT22;26030;51.164;17.100;2023-09-18T00:17:23;25.30;62.40
40323;DHT22;26030;51.164;17.100;2023-09-18T00:22:26;25.30;62.40
40323;DHT22;26030;51.164;17.100;2023-09-18T00:27:30;25.30;62.40
40323;DHT22;26030;51.164;17.100;2023-09-18T00:32:34;25.30;62.40
40323;DHT22;26030;51.164;17.100;2023-09-18T00:37:37;25.30;62.30
40323;DHT22;26030;51.164;17.100;2023-09-18T00:42:41;25.30;62.30
40323;DHT22;26030;51.164;17.100;2023-09-18T00:47:44;25.30;62.30
40323;DHT22;26030;51.164;17.100;2023-09-18T00:52:47;25.30;62.50
40323;DHT22;26030;51.164;17.100;2023-09-18T00:57:51;25.30;62.20
40323;DHT22;26030;51.164;17.100;2023-09-18T01:02:54;25.30;62.20
40323;DHT22;26030;51.164;17.100;2023-09-18T01:07:57;25.30;62.30
40323;DHT22;26030;51.164;17.100;2023-09-18T01:13:11;25.30;62.20
40323;DHT22;26030;51.164;17.100;2023-09-18T01:18:18;25.20;62.30
40323;DHT22;26030;51.164;17.100;2023-09-18T01:23:21;25.20;62.40
40323;DHT22;26030;51.164;17.100;2023-09-18T01:28:24;25.20;62.40
40323;DHT22;26030;51.164;17.100;2023-09-18T01:33:26;25.10;62.40
40323;DHT22;26030;51.164;17.100;2023-09-18T01:38:31;25.20;62.30
40323;DHT22;26030;51.164;17.100;2023-09-18T01:43:33;25.10;62.70
40323;DHT22;26030;51.164;17.100;2023-09-18T01:48:44;25.10;62.40
40323;DHT22;26030;51.164;17.100;2023-09-18T01:53:48;25.10;62.40
40323;DHT22;26030;51.164;17.100;2023-09-18T01:58:51;25.10;62.50
40323;DHT22;26030;51.164;17.100;2023-09-18T02:03:55;25.10;62.50
40323;DHT22;26030;51.164;17.100;2023-09-18T02:09:17;25.10;62.60
40323;DHT22;26030;51.164;17.100;2023-09-18T02:14:20;25.10;62.60
40323;DHT22;26030;51.164;17.100;2023-09-18T02:19:23;25.10;62.60
40323;DHT22;26030;51.164;17.100;2023-09-18T02:24:26;25.00;62.70
40323;DHT22;26030;51.164;17.100;2023-09-18T02:29:29;25.00;62.60
40323;DHT22;26030;51.164;17.100;2023-09-18T02:34:32;25.00;62.80
40323;DHT22;26030;51.164;17.100;2023-09-18T02:39:35;25.00;62.90
40323;DHT22;26030;51.164;17.100;2023-09-18T02:44:38;25.00;63.40
40323;DHT22;26030;51.164;17.100;2023-09-18T02:49:41;25.00;62.70
40323;DHT22;26030;51.164;17.100;2023-09-18T02:54:44;25.00;62.60
40323;DHT22;26030;51.164;17.100;2023-09-18T02:59:47;25.00;62.50
40323;DHT22;26030;51.164;17.100;2023-09-18T03:04:50;25.00;62.40
40323;DHT22;26030;51.164;17.100;2023-09-18T03:09:53;25.00;62.50
40323;DHT22;26030;51.164;17.100;2023-09-18T03:14:57;25.00;62.30
40323;DHT22;26030;51.164;17.100;2023-09-18T03:19:59;25.00;62.50
40323;DHT22;26030;51.164;17.100;2023-09-18T03:25:02;25.00;62.30
40323;DHT22;26030;51.164;17.100;2023-09-18T03:30:05;25.00;62.30
40323;DHT22;26030;51.164;17.100;2023-09-18T03:35:10;24.90;62.30
40323;DHT22;26030;51.164;17.100;2023-09-18T03:40:20;24.90;62.50
40323;DHT22;26030;51.164;17.100;2023-09-18T03:45:23;24.90;62.50
40323;DHT22;26030;51.164;17.100;2023-09-18T03:50:27;24.90;62.30
40323;DHT22;26030;51.164;17.100;2023-09-18T03:55:30;24.90;62.30
40323;DHT22;26030;51.164;17.100;2023-09-18T04:00:33;25.00;62.40
40323;DHT22;26030;51.164;17.100;2023-09-18T04:05:35;24.90;62.30
40323;DHT22;26030;51.164;17.100;2023-09-18T04:10:38;24.90;62.30
40323;DHT22;26030;51.164;17.100;2023-09-18T04:15:41;24.90;62.20
40323;DHT22;26030;51.164;17.100;2023-09-18T04:20:44;24.90;62.20
40323;DHT22;26030;51.164;17.100;2023-09-18T04:25:47;24.90;62.40
40323;DHT22;26030;51.164;17.100;2023-09-18T04:30:50;24.90;62.20
40323;DHT22;26030;51.164;17.100;2023-09-18T04:35:54;24.90;62.30
40323;DHT22;26030;51.164;17.100;2023-09-18T04:40:57;24.90;62.20
40323;DHT22;26030;51.164;17.100;2023-09-18T04:46:01;24.90;62.20
40323;DHT22;26030;51.164;17.100;2023-09-18T04:51:09;24.90;62.30
40323;DHT22;26030;51.164;17.100;2023-09-18T04:56:12;24.90;62.20
40323;DHT22;26030;51.164;17.100;2023-09-18T05:01:15;24.90;62.30
40323;DHT22;26030;51.164;17.100;2023-09-18T05:06:18;24.80;62.20
40323;DHT22;26030;51.164;17.100;2023-09-18T05:11:21;24.80;62.30
40323;DHT22;26030;51.164;17.100;2023-09-18T05:16:24;24.80;62.50
40323;DHT22;26030;51.164;17.100;2023-09-18T05:21:27;24.80;62.40
40323;DHT22;26030;51.164;17.100;2023-09-18T05:26:30;24.80;62.30
40323;DHT22;26030;51.164;17.100;2023-09-18T05:31:34;24.80;62.70
40323;DHT22;26030;51.164;17.100;2023-09-18T05:36:36;24.80;62.30
40323;DHT22;26030;51.164;17.100;2023-09-18T05:41:39;24.80;62.30
40323;DHT22;26030;51.164;17.100;2023-09-18T05:46:42;24.90;62.30
40323;DHT22;26030;51.164;17.100;2023-09-18T05:51:45;24.80;62.90
40323;DHT22;26030;51.164;17.100;2023-09-18T05:56:51;24.80;62.80
40323;DHT22;26030;51.164;17.100;2023-09-18T06:01:53;24.90;62.30
40323;DHT22;26030;51.164;17.100;2023-09-18T06:06:56;24.90;62.80
40323;DHT22;26030;51.164;17.100;2023-09-18T06:12:00;25.00;62.50
40323;DHT22;26030;51.164;17.100;2023-09-18T06:17:03;24.90;63.30
40323;DHT22;26030;51.164;17.100;2023-09-18T06:22:06;24.90;63.00
40323;DHT22;26030;51.164;17.100;2023-09-18T06:27:10;25.00;62.90
40323;DHT22;26030;51.164;17.100;2023-09-18T06:32:13;25.00;63.00
40323;DHT22;26030;51.164;17.100;2023-09-18T06:37:16;25.00;63.10
40323;DHT22;26030;51.164;17.100;2023-09-18T06:42:21;25.00;62.90
40323;DHT22;26030;51.164;17.100;2023-09-18T06:47:32;25.20;62.70
40323;DHT22;26030;51.164;17.100;2023-09-18T06:52:35;25.10;63.10
40323;DHT22;26030;51.164;17.100;2023-09-18T06:57:38;25.20;63.40
40323;DHT22;26030;51.164;17.100;2023-09-18T07:02:43;25.20;63.40
40323;DHT22;26030;51.164;17.100;2023-09-18T07:07:46;25.20;63.40
40323;DHT22;26030;51.164;17.100;2023-09-18T07:12:49;25.20;63.30
40323;DHT22;26030;51.164;17.100;2023-09-18T07:17:52;25.20;63.40
40323;DHT22;26030;51.164;17.100;2023-09-18T07:22:55;25.00;63.70
40323;DHT22;26030;51.164;17.100;2023-09-18T07:27:58;25.00;63.70
40323;DHT22;26030;51.164;17.100;2023-09-18T07:33:01;24.70;64.70
40323;DHT22;26030;51.164;17.100;2023-09-18T07:38:04;24.80;64.60
40323;DHT22;26030;51.164;17.100;2023-09-18T07:43:06;24.80;64.60
40323;DHT22;26030;51.164;17.100;2023-09-18T07:48:09;24.80;64.50
40323;DHT22;26030;51.164;17.100;2023-09-18T07:53:12;24.90;64.60
40323;DHT22;26030;51.164;17.100;2023-09-18T07:58:15;24.90;64.80
40323;DHT22;26030;51.164;17.100;2023-09-18T08:03:18;24.90;64.70
40323;DHT22;26030;51.164;17.100;2023-09-18T08:08:21;24.70;65.60
40323;DHT22;26030;51.164;17.100;2023-09-18T08:13:25;24.70;65.30
40323;DHT22;26030;51.164;17.100;2023-09-18T08:18:28;24.70;66.20
40323;DHT22;26030;51.164;17.100;2023-09-18T08:23:31;24.90;65.10
40323;DHT22;26030;51.164;17.100;2023-09-18T08:28:35;24.90;65.20
40323;DHT22;26030;51.164;17.100;2023-09-18T08:33:40;25.00;66.00
40323;DHT22;26030;51.164;17.100;2023-09-18T08:38:43;25.20;65.80
40323;DHT22;26030;51.164;17.100;2023-09-18T08:43:46;25.00;66.30
40323;DHT22;26030;51.164;17.100;2023-09-18T08:48:50;25.10;67.10
40323;DHT22;26030;51.164;17.100;2023-09-18T08:53:55;25.20;66.20
40323;DHT22;26030;51.164;17.100;2023-09-18T08:59:00;25.00;66.50
40323;DHT22;26030;51.164;17.100;2023-09-18T09:04:03;25.00;67.20
40323;DHT22;26030;51.164;17.100;2023-09-18T09:09:07;25.20;66.10
40323;DHT22;26030;51.164;17.100;2023-09-18T09:14:14;25.10;66.70
40323;DHT22;26030;51.164;17.100;2023-09-18T09:19:28;25.40;66.20
40323;DHT22;26030;51.164;17.100;2023-09-18T09:24:38;25.60;65.30
40323;DHT22;26030;51.164;17.100;2023-09-18T09:29:42;25.20;64.50
40323;DHT22;26030;51.164;17.100;2023-09-18T09:35:00;25.40;65.30
40323;DHT22;26030;51.164;17.100;2023-09-18T09:40:06;25.60;65.10
40323;DHT22;26030;51.164;17.100;2023-09-18T09:45:15;25.70;64.80
40323;DHT22;26030;51.164;17.100;2023-09-18T09:50:21;25.80;64.70
40323;DHT22;26030;51.164;17.100;2023-09-18T09:55:31;25.90;65.10
40323;DHT22;26030;51.164;17.100;2023-09-18T10:00:51;25.90;65.40
40323;DHT22;26030;51.164;17.100;2023-09-18T10:05:58;25.90;65.20
40323;DHT22;26030;51.164;17.100;2023-09-18T10:11:06;25.80;65.70
40323;DHT22;26030;51.164;17.100;2023-09-18T10:16:17;26.00;64.60
40323;DHT22;26030;51.164;17.100;2023-09-18T10:21:22;26.20;64.50
40323;DHT22;26030;51.164;17.100;2023-09-18T10:26:37;26.30;64.40
40323;DHT22;26030;51.164;17.100;2023-09-18T10:31:50;26.20;64.40
40323;DHT22;26030;51.164;17.100;2023-09-18T10:36:54;26.20;63.60
40323;DHT22;26030;51.164;17.100;2023-09-18T10:41:57;26.30;64.10
40323;DHT22;26030;51.164;17.100;2023-09-18T10:47:04;26.30;63.40
40323;DHT22;26030;51.164;17.100;2023-09-18T10:52:12;26.20;63.80
40323;DHT22;26030;51.164;17.100;2023-09-18T10:57:18;26.40;63.40
40323;DHT22;26030;51.164;17.100;2023-09-18T11:02:25;26.40;63.90
40323;DHT22;26030;51.164;17.100;2023-09-18T11:07:30;26.40;64.20
40323;DHT22;26030;51.164;17.100;2023-09-18T11:12:43;26.50;63.90
40323;DHT22;26030;51.164;17.100;2023-09-18T11:17:55;26.50;64.00
40323;DHT22;26030;51.164;17.100;2023-09-18T11:28:22;26.40;64.40
40323;DHT22;26030;51.164;17.100;2023-09-18T11:33:30;26.50;63.80
40323;DHT22;26030;51.164;17.100;2023-09-18T11:38:34;26.60;63.90
40323;DHT22;26030;51.164;17.100;2023-09-18T11:49:31;26.80;62.90
40323;DHT22;26030;51.164;17.100;2023-09-18T11:54:34;26.70;62.90
40323;DHT22;26030;51.164;17.100;2023-09-18T11:59:38;26.70;62.70
40323;DHT22;26030;51.164;17.100;2023-09-18T12:04:47;27.00;62.50
40323;DHT22;26030;51.164;17.100;2023-09-18T12:09:50;27.10;61.80
40323;DHT22;26030;51.164;17.100;2023-09-18T12:14:53;27.10;61.20
40323;DHT22;26030;51.164;17.100;2023-09-18T12:19:56;27.10;61.00
40323;DHT22;26030;51.164;17.100;2023-09-18T12:25:10;27.20;60.50
40323;DHT22;26030;51.164;17.100;2023-09-18T12:30:19;27.10;59.50
40323;DHT22;26030;51.164;17.100;2023-09-18T12:35:26;27.40;56.60
40323;DHT22;26030;51.164;17.100;2023-09-18T12:40:33;27.60;55.30
40323;DHT22;26030;51.164;17.100;2023-09-18T12:45:37;27.60;55.10
40323;DHT22;26030;51.164;17.100;2023-09-18T12:50:42;27.70;55.20
40323;DHT22;26030;51.164;17.100;2023-09-18T12:55:46;27.50;56.30
40323;DHT22;26030;51.164;17.100;2023-09-18T13:00:50;27.60;54.20
40323;DHT22;26030;51.164;17.100;2023-09-18T13:06:06;27.50;54.10
40323;DHT22;26030;51.164;17.100;2023-09-18T13:11:23;27.60;54.60
40323;DHT22;26030;51.164;17.100;2023-09-18T13:16:28;27.50;56.00
40323;DHT22;26030;51.164;17.100;2023-09-18T13:21:31;27.40;56.00
40323;DHT22;26030;51.164;17.100;2023-09-18T13:26:34;27.40;56.40
40323;DHT22;26030;51.164;17.100;2023-09-18T13:31:36;27.60;56.80
40323;DHT22;26030;51.164;17.100;2023-09-18T13:36:39;27.60;57.10
40323;DHT22;26030;51.164;17.100;2023-09-18T13:41:43;27.60;56.70
40323;DHT22;26030;51.164;17.100;2023-09-18T13:46:47;27.50;57.00
40323;DHT22;26030;51.164;17.100;2023-09-18T13:51:49;27.50;57.10
40323;DHT22;26030;51.164;17.100;2023-09-18T13:56:52;27.50;56.90
40323;DHT22;26030;51.164;17.100;2023-09-18T14:01:59;27.50;56.90
40323;DHT22;26030;51.164;17.100;2023-09-18T14:07:03;27.60;56.70
40323;DHT22;26030;51.164;17.100;2023-09-18T14:12:07;27.40;56.90
40323;DHT22;26030;51.164;17.100;2023-09-18T14:17:10;27.20;56.90
40323;DHT22;26030;51.164;17.100;2023-09-18T14:22:14;27.20;57.10
40323;DHT22;26030;51.164;17.100;2023-09-18T14:27:17;27.10;57.10
40323;DHT22;26030;51.164;17.100;2023-09-18T14:32:19;27.20;56.90
40323;DHT22;26030;51.164;17.100;2023-09-18T14:37:22;27.20;57.00
40323;DHT22;26030;51.164;17.100;2023-09-18T14:42:26;27.10;57.30
40323;DHT22;26030;51.164;17.100;2023-09-18T14:47:30;27.30;57.40
40323;DHT22;26030;51.164;17.100;2023-09-18T14:52:34;27.20;56.50
40323;DHT22;26030;51.164;17.100;2023-09-18T14:57:37;27.20;57.20
40323;DHT22;26030;51.164;17.100;2023-09-18T15:02:42;27.10;57.30
40323;DHT22;26030;51.164;17.100;2023-09-18T15:07:45;27.10;58.10
40323;DHT22;26030;51.164;17.100;2023-09-18T15:12:48;27.20;57.50
40323;DHT22;26030;51.164;17.100;2023-09-18T15:17:51;27.20;57.50
40323;DHT22;26030;51.164;17.100;2023-09-18T15:22:54;27.10;57.70
40323;DHT22;26030;51.164;17.100;2023-09-18T15:27:58;27.10;57.80
40323;DHT22;26030;51.164;17.100;2023-09-18T15:33:01;27.00;58.20
40323;DHT22;26030;51.164;17.100;2023-09-18T15:38:05;27.10;58.10
40323;DHT22;26030;51.164;17.100;2023-09-18T15:43:08;27.10;58.10
40323;DHT22;26030;51.164;17.100;2023-09-18T15:48:12;27.10;57.80
40323;DHT22;26030;51.164;17.100;2023-09-18T15:53:16;27.00;58.10
40323;DHT22;26030;51.164;17.100;2023-09-18T15:58:19;27.10;58.10
40323;DHT22;26030;51.164;17.100;2023-09-18T16:03:27;27.20;58.40
40323;DHT22;26030;51.164;17.100;2023-09-18T16:08:35;27.10;58.00
40323;DHT22;26030;51.164;17.100;2023-09-18T16:13:45;27.20;57.90
40323;DHT22;26030;51.164;17.100;2023-09-18T16:18:51;26.90;58.10
40323;DHT22;26030;51.164;17.100;2023-09-18T16:24:01;26.90;58.70
40323;DHT22;26030;51.164;17.100;2023-09-18T16:29:14;26.60;58.60
40323;DHT22;26030;51.164;17.100;2023-09-18T16:34:23;26.40;59.40
40323;DHT22;26030;51.164;17.100;2023-09-18T16:39:29;26.20;59.80
40323;DHT22;26030;51.164;17.100;2023-09-18T16:44:40;26.10;59.60
40323;DHT22;26030;51.164;17.100;2023-09-18T16:49:49;26.00;59.60
40323;DHT22;26030;51.164;17.100;2023-09-18T16:54:55;26.00;59.90
40323;DHT22;26030;51.164;17.100;2023-09-18T17:00:16;25.90;60.20
40323;DHT22;26030;51.164;17.100;2023-09-18T17:05:28;25.80;60.40
40323;DHT22;26030;51.164;17.100;2023-09-18T17:10:36;25.70;60.70
40323;DHT22;26030;51.164;17.100;2023-09-18T17:15:46;25.60;61.10
40323;DHT22;26030;51.164;17.100;2023-09-18T17:20:50;25.50;61.40
40323;DHT22;26030;51.164;17.100;2023-09-18T17:25:54;25.80;60.70
40323;DHT22;26030;51.164;17.100;2023-09-18T17:31:06;26.20;60.10
40323;DHT22;26030;51.164;17.100;2023-09-18T17:36:10;26.10;60.40
40323;DHT22;26030;51.164;17.100;2023-09-18T17:41:17;26.10;60.20
40323;DHT22;26030;51.164;17.100;2023-09-18T17:46:20;26.10;60.50
40323;DHT22;26030;51.164;17.100;2023-09-18T17:51:23;26.00;60.90
40323;DHT22;26030;51.164;17.100;2023-09-18T17:56:26;26.00;61.30
40323;DHT22;26030;51.164;17.100;2023-09-18T18:01:30;26.00;60.90
40323;DHT22;26030;51.164;17.100;2023-09-18T18:06:34;25.90;61.40
40323;DHT22;26030;51.164;17.100;2023-09-18T18:11:39;25.50;61.70
40323;DHT22;26030;51.164;17.100;2023-09-18T18:16:42;25.50;62.10
40323;DHT22;26030;51.164;17.100;2023-09-18T18:21:46;25.60;62.40
40323;DHT22;26030;51.164;17.100;2023-09-18T18:26:51;25.60;62.60
40323;DHT22;26030;51.164;17.100;2023-09-18T18:31:55;25.60;62.80
40323;DHT22;26030;51.164;17.100;2023-09-18T18:37:03;25.60;62.90
40323;DHT22;26030;51.164;17.100;2023-09-18T18:42:06;25.50;62.80
40323;DHT22;26030;51.164;17.100;2023-09-18T18:47:10;25.40;63.20
40323;DHT22;26030;51.164;17.100;2023-09-18T18:52:15;25.30;62.90
40323;DHT22;26030;51.164;17.100;2023-09-18T18:57:21;25.10;63.60
40323;DHT22;26030;51.164;17.100;2023-09-18T19:02:26;25.10;63.10
40323;DHT22;26030;51.164;17.100;2023-09-18T19:07:32;25.20;62.80
40323;DHT22;26030;51.164;17.100;2023-09-18T19:12:37;25.20;62.70
40323;DHT22;26030;51.164;17.100;2023-09-18T19:17:46;25.10;63.00
40323;DHT22;26030;51.164;17.100;2023-09-18T19:22:50;25.10;62.90
40323;DHT22;26030;51.164;17.100;2023-09-18T19:28:04;25.00;63.10
40323;DHT22;26030;51.164;17.100;2023-09-18T19:33:07;25.00;63.30
40323;DHT22;26030;51.164;17.100;2023-09-18T19:38:14;24.90;63.80
40323;DHT22;26030;51.164;17.100;2023-09-18T19:43:19;25.00;63.90
40323;DHT22;26030;51.164;17.100;2023-09-18T19:48:27;25.10;63.60
40323;DHT22;26030;51.164;17.100;2023-09-18T19:53:31;24.90;63.80
40323;DHT22;26030;51.164;17.100;2023-09-18T19:58:36;24.90;63.80
40323;DHT22;26030;51.164;17.100;2023-09-18T20:03:40;24.80;64.00
40323;DHT22;26030;51.164;17.100;2023-09-18T20:08:46;24.80;64.30
40323;DHT22;26030;51.164;17.100;2023-09-18T20:13:49;24.80;64.40
40323;DHT22;26030;51.164;17.100;2023-09-18T20:18:52;24.90;64.30
40323;DHT22;26030;51.164;17.100;2023-09-18T20:23:57;24.90;63.90
40323;DHT22;26030;51.164;17.100;2023-09-18T20:29:02;24.90;64.10
40323;DHT22;26030;51.164;17.100;2023-09-18T20:34:05;24.90;64.20
40323;DHT22;26030;51.164;17.100;2023-09-18T20:39:08;24.90;64.30
40323;DHT22;26030;51.164;17.100;2023-09-18T20:44:11;24.80;64.50
40323;DHT22;26030;51.164;17.100;2023-09-18T20:49:15;24.90;64.20
40323;DHT22;26030;51.164;17.100;2023-09-18T20:54:17;24.90;64.00
40323;DHT22;26030;51.164;17.100;2023-09-18T20:59:20;25.00;63.60
40323;DHT22;26030;51.164;17.100;2023-09-18T21:04:23;25.10;63.30
40323;DHT22;26030;51.164;17.100;2023-09-18T21:09:26;25.20;63.50
40323;DHT22;26030;51.164;17.100;2023-09-18T21:14:29;25.60;64.30
40323;DHT22;26030;51.164;17.100;2023-09-18T21:19:32;25.60;65.20
40323;DHT22;26030;51.164;17.100;2023-09-18T21:24:35;25.60;65.30
40323;DHT22;26030;51.164;17.100;2023-09-18T21:29:38;25.40;64.20
40323;DHT22;26030;51.164;17.100;2023-09-18T21:34:40;25.20;64.00
40323;DHT22;26030;51.164;17.100;2023-09-18T21:39:43;25.20;64.80
40323;DHT22;26030;51.164;17.100;2023-09-18T21:44:46;25.20;64.00
40323;DHT22;26030;51.164;17.100;2023-09-18T21:49:49;25.20;63.90
40323;DHT22;26030;51.164;17.100;2023-09-18T21:54:52;25.20;63.90
40323;DHT22;26030;51.164;17.100;2023-09-18T21:59:55;25.20;64.10
40323;DHT22;26030;51.164;17.100;2023-09-18T22:04:58;25.40;64.20
40323;DHT22;26030;51.164;17.100;2023-09-18T22:10:00;25.50;64.00
40323;DHT22;26030;51.164;17.100;2023-09-18T22:15:03;25.50;63.90
40323;DHT22;26030;51.164;17.100;2023-09-18T22:20:16;25.60;63.50
40323;DHT22;26030;51.164;17.100;2023-09-18T22:25:19;25.60;63.80
40323;DHT22;26030;51.164;17.100;2023-09-18T22:30:22;25.40;63.60
40323;DHT22;26030;51.164;17.100;2023-09-18T22:35:24;25.40;63.80
40323;DHT22;26030;51.164;17.100;2023-09-18T22:56:51;25.50;63.90
40323;DHT22;26030;51.164;17.100;2023-09-18T23:01:54;25.60;64.20
40323;DHT22;26030;51.164;17.100;2023-09-18T23:06:56;25.70;63.90
40323;DHT22;26030;51.164;17.100;2023-09-18T23:12:02;25.80;63.80
40323;DHT22;26030;51.164;17.100;2023-09-18T23:17:08;25.70;63.70
40323;DHT22;26030;51.164;17.100;2023-09-18T23:22:12;25.70;63.90
40323;DHT22;26030;51.164;17.100;2023-09-18T23:27:15;25.70;64.10
40323;DHT22;26030;51.164;17.100;2023-09-18T23:32:19;25.70;63.80
40323;DHT22;26030;51.164;17.100;2023-09-18T23:37:21;25.70;64.10
40323;DHT22;26030;51.164;17.100;2023-09-18T23:42:25;25.70;64.10
40323;DHT22;26030;51.164;17.100;2023-09-18T23:47:30;25.80;64.60
40323;DHT22;26030;51.164;17.100;2023-09-18T23:52:33;25.80;64.00
40323;DHT22;26030;51.164;17.100;2023-09-18T23:57:36;25.70;63.50
